»·PEaware :: N46299 KSBP-KSMX

N46299 :: KSBP-KSMX

FLIGHT INFORMATION

Flight Status: Arrived
Operator: Privately registered:
United States
More flights under this callsign
Pilot: Victor C. (32144)
Aircraft: CESSNA 172 SKYHAWK
(C172)
More flights by this aircraft type
Origin: KSBP San Luis Co Regl
United States
Destination: KSMX Santa Maria Pub/Capt Hancock
United States
More flights between these airports :: More routes between these airports
Route: KSBP KSMX
File this flight plan on PilotEdge
Remarks:
Altitude:
(Current/Filed)
5,000ft
Speed:
(Current/Filed)
100kts
Departed: 30-Oct-20 12:28 PM
Arrived: 30-Oct-20 01:38 PM
Distance/Time
Traveled:
23nm/1:10
Distance/Time
To Go:
Arrived

Flight Plot

Page will automatically refresh every two minutes.


Map Options




Map Legend


Flown Route
Filed Route
Departure Airport
Arrival Airport
Navaid (VOR, NDB)
Fix

Horizontal Profiles

Position Reports

Time Latitude Longitude Heading Altitude Ground
Speed
30-Oct-20 12:12 34.897172 -120.446370 221 264ft 0kts
30-Oct-20 12:13 34.897172 -120.446370 221 264ft 0kts
30-Oct-20 12:14 34.897172 -120.446370 221 264ft 0kts
30-Oct-20 12:15 34.897172 -120.446370 221 264ft 0kts
30-Oct-20 12:16 34.897172 -120.446370 221 264ft 0kts
30-Oct-20 12:17 34.897172 -120.446370 221 264ft 0kts
30-Oct-20 12:18 34.897172 -120.446370 221 264ft 0kts
30-Oct-20 12:19 34.896912 -120.447399 220 264ft 11kts
30-Oct-20 12:20 34.894728 -120.445702 130 264ft 18kts
30-Oct-20 12:21 34.893686 -120.444957 213 264ft 0kts
30-Oct-20 12:22 34.893686 -120.444957 213 264ft 0kts
30-Oct-20 12:23 34.893686 -120.444957 213 264ft 0kts
30-Oct-20 12:24 34.893601 -120.445132 246 264ft 3kts
30-Oct-20 12:25 34.893365 -120.445223 175 264ft 0kts
30-Oct-20 12:26 34.893365 -120.445223 175 264ft 0kts
30-Oct-20 12:27 34.895333 -120.448915 316 264ft 75kts
30-Oct-20 12:28 34.913622 -120.471065 316 1171ft 99kts
30-Oct-20 12:29 34.937139 -120.487230 333 2230ft 96kts
30-Oct-20 12:30 34.962247 -120.502991 339 3078ft 106kts
30-Oct-20 12:31 34.989538 -120.509862 353 4057ft 100kts
30-Oct-20 12:32 35.018044 -120.518668 345 4469ft 113kts
30-Oct-20 12:33 35.047919 -120.527718 343 4610ft 115kts
30-Oct-20 12:34 35.076567 -120.541972 337 4732ft 110kts
30-Oct-20 12:35 35.104424 -120.557272 335 4827ft 109kts
30-Oct-20 12:36 35.129861 -120.552767 55 4656ft 108kts
30-Oct-20 12:37 35.144224 -120.523100 88 4432ft 96kts
30-Oct-20 12:38 35.123891 -120.505435 156 4240ft 96kts
30-Oct-20 12:39 35.099066 -120.492557 156 4047ft 97kts
30-Oct-20 12:40 35.077963 -120.495885 252 3960ft 87kts
30-Oct-20 12:41 35.078960 -120.523667 342 3695ft 96kts
30-Oct-20 12:42 35.105016 -120.521359 20 3403ft 94kts
30-Oct-20 12:43 35.128895 -120.509870 20 3034ft 90kts
30-Oct-20 12:44 35.149054 -120.518717 318 2712ft 83kts
30-Oct-20 12:45 35.165566 -120.537924 318 2410ft 81kts
30-Oct-20 12:46 35.181871 -120.556895 318 2110ft 80kts
30-Oct-20 12:47 35.197549 -120.576149 315 1840ft 77kts
30-Oct-20 12:48 35.212338 -120.598551 310 1202ft 88kts
30-Oct-20 12:49 35.225657 -120.620461 308 627ft 74kts
30-Oct-20 12:50 35.237123 -120.640352 298 214ft 48kts
30-Oct-20 12:51 35.239933 -120.643847 74 214ft 0kts
30-Oct-20 12:52 35.239167 -120.642289 130 214ft 21kts
30-Oct-20 12:53 35.237461 -120.638105 93 214ft 0kts
30-Oct-20 12:54 35.237461 -120.638105 93 214ft 0kts
30-Oct-20 12:55 35.237461 -120.638105 93 214ft 0kts
30-Oct-20 12:56 35.237461 -120.638105 93 214ft 0kts
30-Oct-20 12:57 35.237461 -120.638105 93 214ft 0kts
30-Oct-20 12:58 35.237461 -120.638105 93 214ft 0kts
30-Oct-20 12:59 35.237461 -120.638105 93 214ft 0kts
30-Oct-20 13:00 35.237461 -120.638105 93 214ft 0kts
30-Oct-20 13:01 35.237461 -120.638105 93 214ft 0kts
30-Oct-20 13:02 35.237461 -120.638105 93 214ft 0kts
30-Oct-20 13:03 35.237461 -120.638105 93 214ft 0kts
30-Oct-20 13:04 35.237461 -120.638105 93 214ft 0kts
30-Oct-20 13:05 35.237461 -120.638105 93 214ft 0kts
30-Oct-20 13:06 35.237461 -120.638105 93 214ft 0kts
30-Oct-20 13:07 35.237461 -120.638105 93 214ft 0kts
30-Oct-20 13:08 35.237461 -120.638105 93 214ft 0kts
30-Oct-20 13:09 35.237461 -120.638105 93 214ft 0kts
30-Oct-20 13:10 35.237461 -120.638105 93 214ft 0kts
30-Oct-20 13:11 35.237461 -120.638105 93 214ft 0kts
30-Oct-20 13:12 35.237461 -120.638105 93 214ft 0kts
30-Oct-20 13:13 35.237461 -120.638105 93 214ft 0kts
30-Oct-20 13:14 35.237461 -120.638102 93 214ft 0kts
30-Oct-20 13:15 35.235565 -120.635789 124 214ft 23kts
30-Oct-20 13:16 35.233240 -120.632235 216 214ft 0kts
30-Oct-20 13:17 35.233240 -120.632235 216 214ft 0kts
30-Oct-20 13:18 35.236988 -120.640197 305 316ft 84kts
30-Oct-20 13:19 35.243769 -120.667822 226 1179ft 103kts
30-Oct-20 13:20 35.220616 -120.659409 129 2073ft 114kts
30-Oct-20 13:21 35.198440 -120.634373 144 2962ft 109kts
30-Oct-20 13:22 35.175487 -120.618704 152 3157ft 82kts
30-Oct-20 13:23 35.156189 -120.606849 152 3056ft 74kts
30-Oct-20 13:24 35.137114 -120.593083 146 3001ft 93kts
30-Oct-20 13:25 35.113176 -120.574476 146 2930ft 104kts
30-Oct-20 13:26 35.087772 -120.558476 153 2892ft 99kts
30-Oct-20 13:27 35.062094 -120.543352 153 2744ft 103kts
30-Oct-20 13:28 35.036597 -120.528045 153 2486ft 105kts
30-Oct-20 13:29 35.010410 -120.512038 153 2072ft 96kts
30-Oct-20 13:30 34.988936 -120.497741 152 1642ft 82kts
30-Oct-20 13:31 34.968966 -120.482785 148 1406ft 89kts
30-Oct-20 13:32 34.946912 -120.465709 157 1234ft 95kts
30-Oct-20 13:33 34.925787 -120.450729 148 1088ft 78kts
30-Oct-20 13:34 34.907411 -120.435283 146 1241ft 87kts
30-Oct-20 13:35 34.885888 -120.418536 172 1410ft 92kts
30-Oct-20 13:36 34.886623 -120.438567 315 546ft 89kts
30-Oct-20 13:37 34.898190 -120.452326 317 264ft 18kts
30-Oct-20 13:38 34.898833 -120.451221 85 264ft 0kts
30-Oct-20 13:39 34.898580 -120.450303 134 264ft 13kts
30-Oct-20 13:40 34.897324 -120.446520 81 264ft 8kts
30-Oct-20 13:41 34.897128 -120.446428 240 264ft 0kts
30-Oct-20 13:43 34.897128 -120.446428 240 264ft 0kts
30-Oct-20 13:44 34.897128 -120.446428 240 264ft 0kts
30-Oct-20 13:45 34.897128 -120.446428 240 264ft 0kts
30-Oct-20 13:46 34.897128 -120.446428 240 264ft 0kts
30-Oct-20 13:47 34.897128 -120.446428 240 264ft 0kts
30-Oct-20 13:48 34.897128 -120.446428 240 264ft 0kts

Navigation Log

Ident Type
Flight plan parsing failed, navigation log unavailable